sensor_id;sensor_type;location;lat;lon;timestamp;pressure;altitude;pressure_sealevel;temperature;humidity
43298;BME280;28892;55.640;37.532;2024-01-07T00:02:06;98780.09;;;-14.23;49.63
43298;BME280;28892;55.640;37.532;2024-01-07T00:04:32;98781.63;;;-14.15;49.81
43298;BME280;28892;55.640;37.532;2024-01-07T00:06:59;98788.81;;;-14.33;49.68
43298;BME280;28892;55.640;37.532;2024-01-07T00:09:25;98792.47;;;-14.43;49.64
43298;BME280;28892;55.640;37.532;2024-01-07T00:11:50;98790.44;;;-14.29;49.73
43298;BME280;28892;55.640;37.532;2024-01-07T00:14:16;98798.72;;;-14.57;49.79
43298;BME280;28892;55.640;37.532;2024-01-07T00:16:42;98798.09;;;-14.67;49.95
43298;BME280;28892;55.640;37.532;2024-01-07T00:19:08;98808.31;;;-14.68;49.81
43298;BME280;28892;55.640;37.532;2024-01-07T00:21:33;98816.94;;;-14.74;49.96
43298;BME280;28892;55.640;37.532;2024-01-07T00:24:00;98822.13;;;-14.79;49.89
43298;BME280;28892;55.640;37.532;2024-01-07T00:26:25;98815.47;;;-15.27;50.26
43298;BME280;28892;55.640;37.532;2024-01-07T00:28:51;98812.50;;;-15.05;50.46
43298;BME280;28892;55.640;37.532;2024-01-07T00:31:17;98826.06;;;-15.05;50.33
43298;BME280;28892;55.640;37.532;2024-01-07T00:33:42;98822.31;;;-14.88;50.44
43298;BME280;28892;55.640;37.532;2024-01-07T00:36:08;98830.81;;;-15.32;50.06
43298;BME280;28892;55.640;37.532;2024-01-07T00:38:33;98835.09;;;-15.34;50.37
43298;BME280;28892;55.640;37.532;2024-01-07T00:40:59;98842.31;;;-15.12;50.57
43298;BME280;28892;55.640;37.532;2024-01-07T00:43:24;98843.31;;;-15.19;50.69
43298;BME280;28892;55.640;37.532;2024-01-07T00:45:50;98849.19;;;-15.17;50.64
43298;BME280;28892;55.640;37.532;2024-01-07T00:48:16;98849.34;;;-15.25;50.64
43298;BME280;28892;55.640;37.532;2024-01-07T00:50:42;98851.88;;;-15.23;50.32
43298;BME280;28892;55.640;37.532;2024-01-07T00:53:07;98858.41;;;-15.10;50.44
43298;BME280;28892;55.640;37.532;2024-01-07T00:55:33;98855.13;;;-15.17;50.27
43298;BME280;28892;55.640;37.532;2024-01-07T00:58:01;98859.25;;;-15.09;50.24
43298;BME280;28892;55.640;37.532;2024-01-07T01:00:26;98873.75;;;-15.14;50.02
43298;BME280;28892;55.640;37.532;2024-01-07T01:02:53;98874.53;;;-15.11;49.95
43298;BME280;28892;55.640;37.532;2024-01-07T01:05:18;98874.44;;;-15.06;50.13
43298;BME280;28892;55.640;37.532;2024-01-07T01:07:44;98889.56;;;-14.98;49.94
43298;BME280;28892;55.640;37.532;2024-01-07T01:10:10;98890.44;;;-14.99;50.08
43298;BME280;28892;55.640;37.532;2024-01-07T01:12:35;98894.66;;;-14.97;50.24
43298;BME280;28892;55.640;37.532;2024-01-07T01:15:01;98905.38;;;-15.26;49.74
43298;BME280;28892;55.640;37.532;2024-01-07T01:17:26;98901.66;;;-15.08;49.95
43298;BME280;28892;55.640;37.532;2024-01-07T01:19:52;98909.03;;;-14.94;50.01
43298;BME280;28892;55.640;37.532;2024-01-07T01:22:17;98913.19;;;-14.90;49.86
43298;BME280;28892;55.640;37.532;2024-01-07T01:24:43;98923.84;;;-15.17;49.36
43298;BME280;28892;55.640;37.532;2024-01-07T01:27:12;98914.59;;;-15.21;49.54
43298;BME280;28892;55.640;37.532;2024-01-07T01:29:39;98926.38;;;-15.15;49.68
43298;BME280;28892;55.640;37.532;2024-01-07T01:32:05;98921.13;;;-15.06;49.76
43298;BME280;28892;55.640;37.532;2024-01-07T01:34:31;98922.00;;;-15.08;49.64
43298;BME280;28892;55.640;37.532;2024-01-07T01:36:57;98928.75;;;-15.06;49.75
43298;BME280;28892;55.640;37.532;2024-01-07T01:39:22;98933.72;;;-15.01;49.38
43298;BME280;28892;55.640;37.532;2024-01-07T01:41:48;98937.34;;;-15.11;49.57
43298;BME280;28892;55.640;37.532;2024-01-07T01:44:13;98945.00;;;-15.13;49.75
43298;BME280;28892;55.640;37.532;2024-01-07T01:46:39;98946.19;;;-15.34;49.51
43298;BME280;28892;55.640;37.532;2024-01-07T01:49:05;98961.28;;;-15.22;49.94
43298;BME280;28892;55.640;37.532;2024-01-07T01:51:31;98962.88;;;-15.16;49.78
43298;BME280;28892;55.640;37.532;2024-01-07T01:53:57;98960.41;;;-15.21;49.51
43298;BME280;28892;55.640;37.532;2024-01-07T01:56:23;98966.44;;;-15.26;49.52
43298;BME280;28892;55.640;37.532;2024-01-07T01:58:52;98968.06;;;-15.24;49.49
43298;BME280;28892;55.640;37.532;2024-01-07T02:01:18;98976.72;;;-15.34;49.37
43298;BME280;28892;55.640;37.532;2024-01-07T02:03:44;98981.81;;;-15.34;49.71
43298;BME280;28892;55.640;37.532;2024-01-07T02:06:09;98983.97;;;-15.63;49.09
43298;BME280;28892;55.640;37.532;2024-01-07T02:08:37;98990.66;;;-15.57;49.64
43298;BME280;28892;55.640;37.532;2024-01-07T02:11:17;98996.59;;;-15.58;49.54
43298;BME280;28892;55.640;37.532;2024-01-07T02:13:43;98993.78;;;-15.94;49.53
43298;BME280;28892;55.640;37.532;2024-01-07T02:16:08;98996.41;;;-16.01;49.85
43298;BME280;28892;55.640;37.532;2024-01-07T02:18:34;98987.75;;;-15.89;50.10
43298;BME280;28892;55.640;37.532;2024-01-07T02:21:00;98984.69;;;-15.56;49.35
43298;BME280;28892;55.640;37.532;2024-01-07T02:23:26;99000.19;;;-15.70;49.48
43298;BME280;28892;55.640;37.532;2024-01-07T02:25:51;98994.19;;;-15.67;49.46
43298;BME280;28892;55.640;37.532;2024-01-07T02:28:18;98994.31;;;-15.74;49.64
43298;BME280;28892;55.640;37.532;2024-01-07T02:30:43;98990.78;;;-15.66;49.71
43298;BME280;28892;55.640;37.532;2024-01-07T02:33:09;98999.25;;;-15.64;49.51
43298;BME280;28892;55.640;37.532;2024-01-07T02:35:35;98998.50;;;-15.71;49.51
43298;BME280;28892;55.640;37.532;2024-01-07T02:38:01;98991.72;;;-15.70;49.52
43298;BME280;28892;55.640;37.532;2024-01-07T02:40:26;98995.16;;;-15.75;49.40
43298;BME280;28892;55.640;37.532;2024-01-07T02:42:52;98986.63;;;-15.72;49.41
43298;BME280;28892;55.640;37.532;2024-01-07T02:45:17;98989.41;;;-15.86;49.53
43298;BME280;28892;55.640;37.532;2024-01-07T02:47:44;98992.03;;;-15.91;49.29
43298;BME280;28892;55.640;37.532;2024-01-07T02:50:11;98999.97;;;-16.12;49.21
43298;BME280;28892;55.640;37.532;2024-01-07T02:52:36;98999.00;;;-16.05;49.56
43298;BME280;28892;55.640;37.532;2024-01-07T02:55:02;98994.88;;;-16.12;49.29
43298;BME280;28892;55.640;37.532;2024-01-07T02:57:28;99007.75;;;-16.25;49.24
43298;BME280;28892;55.640;37.532;2024-01-07T02:59:54;99013.63;;;-16.23;49.48
43298;BME280;28892;55.640;37.532;2024-01-07T03:02:19;99012.75;;;-16.20;49.27
43298;BME280;28892;55.640;37.532;2024-01-07T03:04:45;99029.59;;;-16.13;49.41
43298;BME280;28892;55.640;37.532;2024-01-07T03:07:10;99026.28;;;-16.18;49.40
43298;BME280;28892;55.640;37.532;2024-01-07T03:09:36;99030.50;;;-16.17;49.09
43298;BME280;28892;55.640;37.532;2024-01-07T03:12:01;99033.78;;;-16.09;48.79
43298;BME280;28892;55.640;37.532;2024-01-07T03:14:27;99045.16;;;-16.39;48.87
43298;BME280;28892;55.640;37.532;2024-01-07T03:16:53;99063.97;;;-16.59;49.06
43298;BME280;28892;55.640;37.532;2024-01-07T03:19:18;99059.72;;;-16.55;49.38
43298;BME280;28892;55.640;37.532;2024-01-07T03:21:44;99056.19;;;-16.42;49.39
43298;BME280;28892;55.640;37.532;2024-01-07T03:24:10;99049.38;;;-16.38;49.41
43298;BME280;28892;55.640;37.532;2024-01-07T03:26:35;99052.66;;;-16.30;49.14
43298;BME280;28892;55.640;37.532;2024-01-07T03:29:01;99055.94;;;-16.20;49.01
43298;BME280;28892;55.640;37.532;2024-01-07T03:31:27;99056.06;;;-16.30;48.73
43298;BME280;28892;55.640;37.532;2024-01-07T03:33:53;99074.81;;;-16.40;48.63
43298;BME280;28892;55.640;37.532;2024-01-07T03:36:18;99081.44;;;-16.28;48.82
43298;BME280;28892;55.640;37.532;2024-01-07T03:38:44;99078.06;;;-16.32;48.47
43298;BME280;28892;55.640;37.532;2024-01-07T03:41:15;99088.72;;;-16.78;48.48
43298;BME280;28892;55.640;37.532;2024-01-07T03:43:40;99089.66;;;-16.89;48.96
43298;BME280;28892;55.640;37.532;2024-01-07T03:46:06;99092.91;;;-16.76;49.32
43298;BME280;28892;55.640;37.532;2024-01-07T03:48:33;99087.72;;;-16.63;49.29
43298;BME280;28892;55.640;37.532;2024-01-07T03:50:59;99093.53;;;-16.50;48.71
43298;BME280;28892;55.640;37.532;2024-01-07T03:53:24;99101.34;;;-16.74;48.62
43298;BME280;28892;55.640;37.532;2024-01-07T03:55:50;99106.41;;;-16.67;48.90
43298;BME280;28892;55.640;37.532;2024-01-07T03:58:15;99112.28;;;-16.67;48.98
43298;BME280;28892;55.640;37.532;2024-01-07T04:00:41;99113.47;;;-17.04;49.11
43298;BME280;28892;55.640;37.532;2024-01-07T04:03:06;99115.94;;;-16.99;49.24
43298;BME280;28892;55.640;37.532;2024-01-07T04:05:32;99120.94;;;-16.91;49.20
43298;BME280;28892;55.640;37.532;2024-01-07T04:08:00;99121.75;;;-16.83;49.19
43298;BME280;28892;55.640;37.532;2024-01-07T04:10:25;99130.94;;;-16.69;49.05
43298;BME280;28892;55.640;37.532;2024-01-07T04:12:51;99134.53;;;-16.95;48.87
43298;BME280;28892;55.640;37.532;2024-01-07T04:15:16;99126.91;;;-16.94;48.90
43298;BME280;28892;55.640;37.532;2024-01-07T04:17:42;99123.47;;;-16.87;49.25
43298;BME280;28892;55.640;37.532;2024-01-07T04:20:08;99127.66;;;-16.82;49.11
43298;BME280;28892;55.640;37.532;2024-01-07T04:22:33;99132.75;;;-16.82;49.20
43298;BME280;28892;55.640;37.532;2024-01-07T04:24:59;99126.84;;;-16.85;48.91
43298;BME280;28892;55.640;37.532;2024-01-07T04:27:24;99141.22;;;-16.87;48.85
43298;BME280;28892;55.640;37.532;2024-01-07T04:29:50;99135.28;;;-16.82;48.94
43298;BME280;28892;55.640;37.532;2024-01-07T04:32:16;99144.59;;;-16.81;49.13
43298;BME280;28892;55.640;37.532;2024-01-07T04:34:41;99145.38;;;-16.76;49.20
43298;BME280;28892;55.640;37.532;2024-01-07T04:37:07;99153.72;;;-16.65;49.12
43298;BME280;28892;55.640;37.532;2024-01-07T04:39:32;99156.19;;;-16.55;49.05
43298;BME280;28892;55.640;37.532;2024-01-07T04:41:58;99163.03;;;-16.61;48.95
43298;BME280;28892;55.640;37.532;2024-01-07T04:44:23;99164.81;;;-16.72;49.04
43298;BME280;28892;55.640;37.532;2024-01-07T04:46:49;99165.63;;;-16.68;49.12
43298;BME280;28892;55.640;37.532;2024-01-07T04:49:16;99168.97;;;-16.62;49.05
43298;BME280;28892;55.640;37.532;2024-01-07T04:51:41;99181.56;;;-16.52;48.92
43298;BME280;28892;55.640;37.532;2024-01-07T04:54:07;99174.84;;;-16.57;48.90
43298;BME280;28892;55.640;37.532;2024-01-07T04:56:33;99177.38;;;-16.58;48.78
43298;BME280;28892;55.640;37.532;2024-01-07T04:58:58;99178.22;;;-16.56;48.74
43298;BME280;28892;55.640;37.532;2024-01-07T05:01:24;99191.84;;;-16.68;48.75
43298;BME280;28892;55.640;37.532;2024-01-07T05:03:49;99196.16;;;-16.79;48.78
43298;BME280;28892;55.640;37.532;2024-01-07T05:06:15;99197.03;;;-16.82;48.75
43298;BME280;28892;55.640;37.532;2024-01-07T05:08:41;99202.09;;;-16.82;48.71
43298;BME280;28892;55.640;37.532;2024-01-07T05:11:09;99204.69;;;-16.88;48.68
43298;BME280;28892;55.640;37.532;2024-01-07T05:13:35;99215.78;;;-17.00;48.36
43298;BME280;28892;55.640;37.532;2024-01-07T05:16:00;99219.13;;;-16.96;48.89
43298;BME280;28892;55.640;37.532;2024-01-07T05:18:26;99216.66;;;-17.00;48.63
43298;BME280;28892;55.640;37.532;2024-01-07T05:20:51;99222.50;;;-16.93;49.06
43298;BME280;28892;55.640;37.532;2024-01-07T05:23:19;99221.63;;;-16.93;48.78
43298;BME280;28892;55.640;37.532;2024-01-07T05:25:45;99217.38;;;-16.90;48.65
43298;BME280;28892;55.640;37.532;2024-01-07T05:28:11;99226.84;;;-17.10;48.31
43298;BME280;28892;55.640;37.532;2024-01-07T05:30:37;99232.81;;;-17.21;48.64
43298;BME280;28892;55.640;37.532;2024-01-07T05:33:03;99238.03;;;-17.52;48.56
43298;BME280;28892;55.640;37.532;2024-01-07T05:35:28;99237.16;;;-17.38;48.67
43298;BME280;28892;55.640;37.532;2024-01-07T05:37:54;99239.56;;;-17.17;48.79
43298;BME280;28892;55.640;37.532;2024-01-07T05:40:20;99246.34;;;-17.23;48.54
43298;BME280;28892;55.640;37.532;2024-01-07T05:42:48;99248.91;;;-17.27;48.60
43298;BME280;28892;55.640;37.532;2024-01-07T05:45:14;99257.50;;;-17.57;48.45
43298;BME280;28892;55.640;37.532;2024-01-07T05:47:39;99258.28;;;-17.43;48.77
43298;BME280;28892;55.640;37.532;2024-01-07T05:50:07;99274.34;;;-17.42;48.89
43298;BME280;28892;55.640;37.532;2024-01-07T05:52:33;99267.59;;;-17.48;48.69
43298;BME280;28892;55.640;37.532;2024-01-07T05:54:59;99274.31;;;-17.33;48.43
43298;BME280;28892;55.640;37.532;2024-01-07T05:57:25;99275.97;;;-17.27;48.47
43298;BME280;28892;55.640;37.532;2024-01-07T05:59:54;99287.00;;;-17.39;48.32
43298;BME280;28892;55.640;37.532;2024-01-07T06:02:19;99293.78;;;-17.47;48.21
43298;BME280;28892;55.640;37.532;2024-01-07T06:04:46;99291.28;;;-17.49;48.32
43298;BME280;28892;55.640;37.532;2024-01-07T06:07:12;99299.72;;;-17.51;48.28
43298;BME280;28892;55.640;37.532;2024-01-07T06:09:41;99290.41;;;-17.49;48.42
43298;BME280;28892;55.640;37.532;2024-01-07T06:12:12;99310.69;;;-17.49;48.31
43298;BME280;28892;55.640;37.532;2024-01-07T06:14:38;99314.88;;;-17.41;47.89
43298;BME280;28892;55.640;37.532;2024-01-07T06:17:03;99315.72;;;-17.37;47.67
43298;BME280;28892;55.640;37.532;2024-01-07T06:19:29;99320.84;;;-17.59;47.72
43298;BME280;28892;55.640;37.532;2024-01-07T06:21:55;99335.22;;;-17.62;47.74
43298;BME280;28892;55.640;37.532;2024-01-07T06:24:21;99335.22;;;-17.72;48.02
43298;BME280;28892;55.640;37.532;2024-01-07T06:26:46;99331.00;;;-17.62;47.92
43298;BME280;28892;55.640;37.532;2024-01-07T06:29:12;99331.84;;;-17.69;47.81
43298;BME280;28892;55.640;37.532;2024-01-07T06:31:42;99334.38;;;-17.64;47.92
43298;BME280;28892;55.640;37.532;2024-01-07T06:34:08;99336.06;;;-17.49;48.10
43298;BME280;28892;55.640;37.532;2024-01-07T06:36:39;99336.88;;;-17.41;48.15
43298;BME280;28892;55.640;37.532;2024-01-07T06:39:04;99338.50;;;-17.24;48.09
43298;BME280;28892;55.640;37.532;2024-01-07T06:41:30;99340.97;;;-17.07;48.01
43298;BME280;28892;55.640;37.532;2024-01-07T06:43:56;99335.91;;;-17.00;47.86
43298;BME280;28892;55.640;37.532;2024-01-07T06:46:22;99345.16;;;-16.97;47.86
43298;BME280;28892;55.640;37.532;2024-01-07T06:48:47;99354.44;;;-16.90;47.87
43298;BME280;28892;55.640;37.532;2024-01-07T06:51:14;99356.06;;;-16.76;48.03
43298;BME280;28892;55.640;37.532;2024-01-07T06:53:40;99366.25;;;-16.86;47.61
43298;BME280;28892;55.640;37.532;2024-01-07T06:56:06;99365.59;;;-17.30;47.33
43298;BME280;28892;55.640;37.532;2024-01-07T06:58:32;99362.06;;;-16.97;47.94
43298;BME280;28892;55.640;37.532;2024-01-07T07:00:57;99367.06;;;-16.77;48.17
43298;BME280;28892;55.640;37.532;2024-01-07T07:03:23;99361.94;;;-16.66;48.03
43298;BME280;28892;55.640;37.532;2024-01-07T07:05:49;99370.41;;;-16.69;47.61
43298;BME280;28892;55.640;37.532;2024-01-07T07:08:14;99377.94;;;-16.52;47.90
43298;BME280;28892;55.640;37.532;2024-01-07T07:10:40;99390.72;;;-16.67;47.25
43298;BME280;28892;55.640;37.532;2024-01-07T07:13:05;99382.22;;;-16.57;47.67
43298;BME280;28892;55.640;37.532;2024-01-07T07:15:31;99391.50;;;-16.53;47.77
43298;BME280;28892;55.640;37.532;2024-01-07T07:17:56;99391.50;;;-16.58;47.41
43298;BME280;28892;55.640;37.532;2024-01-07T07:20:22;99391.59;;;-16.76;46.95
43298;BME280;28892;55.640;37.532;2024-01-07T07:22:48;99387.34;;;-16.74;47.18
43298;BME280;28892;55.640;37.532;2024-01-07T07:25:13;99392.38;;;-16.60;47.83
43298;BME280;28892;55.640;37.532;2024-01-07T07:27:39;99391.41;;;-16.42;47.91
43298;BME280;28892;55.640;37.532;2024-01-07T07:30:05;99395.78;;;-16.64;47.16
43298;BME280;28892;55.640;37.532;2024-01-07T07:32:30;99398.31;;;-16.60;47.14
43298;BME280;28892;55.640;37.532;2024-01-07T07:34:56;99394.88;;;-16.55;47.01
43298;BME280;28892;55.640;37.532;2024-01-07T07:37:21;99394.00;;;-16.50;47.23
43298;BME280;28892;55.640;37.532;2024-01-07T07:39:47;99400.72;;;-16.39;47.38
43298;BME280;28892;55.640;37.532;2024-01-07T07:42:12;99400.66;;;-16.27;47.25
43298;BME280;28892;55.640;37.532;2024-01-07T07:44:38;99397.19;;;-16.17;48.25
43298;BME280;28892;55.640;37.532;2024-01-07T07:47:05;99407.28;;;-16.03;48.73
43298;BME280;28892;55.640;37.532;2024-01-07T07:49:31;99410.47;;;-15.76;49.29
43298;BME280;28892;55.640;37.532;2024-01-07T07:51:56;99416.16;;;-15.47;48.88
43298;BME280;28892;55.640;37.532;2024-01-07T07:54:22;99423.22;;;-15.87;46.69
43298;BME280;28892;55.640;37.532;2024-01-07T07:56:48;99432.41;;;-15.67;47.48
43298;BME280;28892;55.640;37.532;2024-01-07T07:59:13;99427.25;;;-15.57;47.06
43298;BME280;28892;55.640;37.532;2024-01-07T08:01:40;99437.97;;;-15.23;48.04
43298;BME280;28892;55.640;37.532;2024-01-07T08:04:05;99443.81;;;-15.14;47.06
43298;BME280;28892;55.640;37.532;2024-01-07T08:06:31;99454.03;;;-15.16;46.76
43298;BME280;28892;55.640;37.532;2024-01-07T08:08:57;99453.09;;;-15.09;46.98
43298;BME280;28892;55.640;37.532;2024-01-07T08:11:23;99465.88;;;-15.12;46.54
43298;BME280;28892;55.640;37.532;2024-01-07T08:13:50;99460.22;;;-15.43;44.52
43298;BME280;28892;55.640;37.532;2024-01-07T08:16:15;99464.56;;;-15.56;45.16
43298;BME280;28892;55.640;37.532;2024-01-07T08:18:41;99462.75;;;-15.45;46.23
43298;BME280;28892;55.640;37.532;2024-01-07T08:21:07;99468.53;;;-15.26;46.38
43298;BME280;28892;55.640;37.532;2024-01-07T08:23:33;99478.63;;;-15.18;46.29
43298;BME280;28892;55.640;37.532;2024-01-07T08:25:59;99472.59;;;-15.08;45.34
43298;BME280;28892;55.640;37.532;2024-01-07T08:28:24;99470.75;;;-14.89;46.02
43298;BME280;28892;55.640;37.532;2024-01-07T08:30:51;99474.97;;;-14.89;45.72
43298;BME280;28892;55.640;37.532;2024-01-07T08:33:19;99480.63;;;-14.65;45.37
43298;BME280;28892;55.640;37.532;2024-01-07T08:35:44;99485.78;;;-14.68;44.24
43298;BME280;28892;55.640;37.532;2024-01-07T08:38:10;99494.44;;;-14.83;43.92
43298;BME280;28892;55.640;37.532;2024-01-07T08:40:36;99498.75;;;-14.89;44.51
43298;BME280;28892;55.640;37.532;2024-01-07T08:43:02;99487.16;;;-14.41;44.45
43298;BME280;28892;55.640;37.532;2024-01-07T08:45:29;99477.03;;;-12.78;42.99
43298;BME280;28892;55.640;37.532;2024-01-07T08:47:57;99466.19;;;-10.03;41.28
43298;BME280;28892;55.640;37.532;2024-01-07T08:50:24;99462.66;;;-8.42;35.34
43298;BME280;28892;55.640;37.532;2024-01-07T08:52:50;99465.28;;;-7.74;33.09
43298;BME280;28892;55.640;37.532;2024-01-07T08:55:15;99462.97;;;-7.14;34.92
43298;BME280;28892;55.640;37.532;2024-01-07T08:57:43;99466.25;;;-7.54;33.32
43298;BME280;28892;55.640;37.532;2024-01-07T09:00:10;99454.72;;;-7.02;33.52
43298;BME280;28892;55.640;37.532;2024-01-07T09:02:39;99463.66;;;-6.10;32.17
43298;BME280;28892;55.640;37.532;2024-01-07T09:05:06;99455.03;;;-5.72;33.16
43298;BME280;28892;55.640;37.532;2024-01-07T09:07:32;99463.34;;;-5.85;32.31
43298;BME280;28892;55.640;37.532;2024-01-07T09:09:58;99476.13;;;-6.39;32.52
43298;BME280;28892;55.640;37.532;2024-01-07T09:12:28;99468.31;;;-5.26;34.69
43298;BME280;28892;55.640;37.532;2024-01-07T09:14:55;99466.41;;;-5.05;29.45
43298;BME280;28892;55.640;37.532;2024-01-07T09:17:21;99469.59;;;-5.35;29.69
43298;BME280;28892;55.640;37.532;2024-01-07T09:19:47;99468.81;;;-4.66;33.88
43298;BME280;28892;55.640;37.532;2024-01-07T09:22:13;99464.56;;;-4.33;29.68
43298;BME280;28892;55.640;37.532;2024-01-07T09:24:39;99481.56;;;-5.69;30.93
43298;BME280;28892;55.640;37.532;2024-01-07T09:27:05;99476.34;;;-5.32;31.27
43298;BME280;28892;55.640;37.532;2024-01-07T09:29:30;99481.38;;;-5.47;34.76
43298;BME280;28892;55.640;37.532;2024-01-07T09:31:57;99476.41;;;-4.97;33.88
43298;BME280;28892;55.640;37.532;2024-01-07T09:34:23;99479.09;;;-4.31;35.14
43298;BME280;28892;55.640;37.532;2024-01-07T09:36:48;99482.16;;;-5.27;28.95
43298;BME280;28892;55.640;37.532;2024-01-07T09:39:15;99483.06;;;-5.10;31.70
43298;BME280;28892;55.640;37.532;2024-01-07T09:41:40;99493.44;;;-6.03;30.34
43298;BME280;28892;55.640;37.532;2024-01-07T09:44:06;99501.50;;;-6.49;30.59
43298;BME280;28892;55.640;37.532;2024-01-07T09:46:33;99501.97;;;-6.20;33.34
43298;BME280;28892;55.640;37.532;2024-01-07T09:49:01;99507.63;;;-6.52;30.52
43298;BME280;28892;55.640;37.532;2024-01-07T09:51:26;99510.75;;;-6.64;30.98
43298;BME280;28892;55.640;37.532;2024-01-07T09:53:56;99510.63;;;-6.02;33.03
43298;BME280;28892;55.640;37.532;2024-01-07T09:56:23;99511.59;;;-5.85;30.97
43298;BME280;28892;55.640;37.532;2024-01-07T09:58:51;99513.84;;;-5.41;31.91
43298;BME280;28892;55.640;37.532;2024-01-07T10:01:17;99514.78;;;-5.80;30.93
43298;BME280;28892;55.640;37.532;2024-01-07T10:03:44;99508.28;;;-6.07;30.83
43298;BME280;28892;55.640;37.532;2024-01-07T10:06:13;99527.22;;;-6.27;32.53
43298;BME280;28892;55.640;37.532;2024-01-07T10:08:38;99504.47;;;-5.61;32.99
43298;BME280;28892;55.640;37.532;2024-01-07T10:11:04;99512.44;;;-6.04;30.40
43298;BME280;28892;55.640;37.532;2024-01-07T10:13:30;99517.31;;;-5.98;32.07
43298;BME280;28892;55.640;37.532;2024-01-07T10:15:55;99519.13;;;-6.19;31.99
43298;BME280;28892;55.640;37.532;2024-01-07T10:18:22;99520.22;;;-6.25;33.11
43298;BME280;28892;55.640;37.532;2024-01-07T10:20:49;99522.72;;;-6.22;31.90
43298;BME280;28892;55.640;37.532;2024-01-07T10:23:19;99525.53;;;-6.28;30.45
43298;BME280;28892;55.640;37.532;2024-01-07T10:25:45;99523.28;;;-6.15;31.92
43298;BME280;28892;55.640;37.532;2024-01-07T10:28:12;99526.59;;;-5.94;30.74
43298;BME280;28892;55.640;37.532;2024-01-07T10:30:39;99528.94;;;-6.07;32.04
43298;BME280;28892;55.640;37.532;2024-01-07T10:33:27;99540.63;;;-5.99;33.17
43298;BME280;28892;55.640;37.532;2024-01-07T10:35:54;99533.53;;;-5.75;32.69
43298;BME280;28892;55.640;37.532;2024-01-07T10:38:21;99522.03;;;-5.50;33.31
43298;BME280;28892;55.640;37.532;2024-01-07T10:40:47;99527.63;;;-5.40;32.64
43298;BME280;28892;55.640;37.532;2024-01-07T10:43:15;99527.63;;;-5.40;31.42
43298;BME280;28892;55.640;37.532;2024-01-07T10:48:59;99532.78;;;-5.40;31.03
43298;BME280;28892;55.640;37.532;2024-01-07T10:51:32;99524.31;;;-5.25;31.71
43298;BME280;28892;55.640;37.532;2024-01-07T10:53:59;99530.22;;;-5.23;30.16
43298;BME280;28892;55.640;37.532;2024-01-07T10:56:25;99537.56;;;-5.69;31.40
43298;BME280;28892;55.640;37.532;2024-01-07T10:58:55;99530.66;;;-5.69;30.42
43298;BME280;28892;55.640;37.532;2024-01-07T11:01:22;99534.50;;;-5.78;30.22
43298;BME280;28892;55.640;37.532;2024-01-07T11:04:37;99523.38;;;-5.41;33.40
43298;BME280;28892;55.640;37.532;2024-01-07T11:11:49;99538.03;;;-5.05;30.65
43298;BME280;28892;55.640;37.532;2024-01-07T11:14:34;99539.28;;;-5.70;30.54
43298;BME280;28892;55.640;37.532;2024-01-07T11:17:05;99535.94;;;-5.72;31.74
43298;BME280;28892;55.640;37.532;2024-01-07T11:19:31;99545.16;;;-5.66;32.00
43298;BME280;28892;55.640;37.532;2024-01-07T11:24:43;99555.03;;;-6.13;33.68
43298;BME280;28892;55.640;37.532;2024-01-07T11:27:09;99551.50;;;-6.72;33.61
43298;BME280;28892;55.640;37.532;2024-01-07T11:29:36;99548.78;;;-6.90;33.31
43298;BME280;28892;55.640;37.532;2024-01-07T11:32:02;99552.28;;;-6.50;34.54
43298;BME280;28892;55.640;37.532;2024-01-07T11:34:41;99558.78;;;-6.41;33.95
43298;BME280;28892;55.640;37.532;2024-01-07T11:37:13;99561.31;;;-6.39;33.37
43298;BME280;28892;55.640;37.532;2024-01-07T11:39:47;99559.34;;;-6.13;34.97
43298;BME280;28892;55.640;37.532;2024-01-07T11:42:17;99568.53;;;-5.68;34.13
43298;BME280;28892;55.640;37.532;2024-01-07T11:44:53;99559.22;;;-5.72;34.04
43298;BME280;28892;55.640;37.532;2024-01-07T11:47:19;99565.06;;;-7.33;30.46
43298;BME280;28892;55.640;37.532;2024-01-07T11:49:46;99570.03;;;-7.98;34.46
43298;BME280;28892;55.640;37.532;2024-01-07T11:52:12;99578.41;;;-9.20;34.62
43298;BME280;28892;55.640;37.532;2024-01-07T11:54:38;99587.09;;;-10.46;34.67
43298;BME280;28892;55.640;37.532;2024-01-07T11:57:04;99587.97;;;-11.56;35.98
43298;BME280;28892;55.640;37.532;2024-01-07T11:59:31;99599.53;;;-12.70;37.90
43298;BME280;28892;55.640;37.532;2024-01-07T12:01:59;99596.81;;;-13.12;38.45
43298;BME280;28892;55.640;37.532;2024-01-07T12:04:26;99602.34;;;-14.08;40.27
43298;BME280;28892;55.640;37.532;2024-01-07T12:06:53;99599.38;;;-14.49;41.52
43298;BME280;28892;55.640;37.532;2024-01-07T12:09:20;99607.13;;;-14.63;42.22
43298;BME280;28892;55.640;37.532;2024-01-07T12:11:45;99608.75;;;-14.54;42.46
43298;BME280;28892;55.640;37.532;2024-01-07T12:14:11;99608.69;;;-14.46;41.96
43298;BME280;28892;55.640;37.532;2024-01-07T12:16:37;99622.69;;;-14.95;43.55
43298;BME280;28892;55.640;37.532;2024-01-07T12:19:04;99616.63;;;-14.77;42.74
43298;BME280;28892;55.640;37.532;2024-01-07T12:21:31;99618.34;;;-14.81;43.17
43298;BME280;28892;55.640;37.532;2024-01-07T12:23:59;99617.34;;;-14.66;41.78
43298;BME280;28892;55.640;37.532;2024-01-07T12:26:28;99618.28;;;-14.75;42.17
43298;BME280;28892;55.640;37.532;2024-01-07T12:28:56;99610.03;;;-15.00;43.07
43298;BME280;28892;55.640;37.532;2024-01-07T12:31:25;99604.63;;;-14.66;41.56
43298;BME280;28892;55.640;37.532;2024-01-07T12:33:52;99614.09;;;-14.79;41.97
43298;BME280;28892;55.640;37.532;2024-01-07T12:36:21;99615.84;;;-14.84;42.83
43298;BME280;28892;55.640;37.532;2024-01-07T12:38:47;99609.63;;;-14.58;42.87
43298;BME280;28892;55.640;37.532;2024-01-07T12:41:14;99609.50;;;-14.44;42.78
43298;BME280;28892;55.640;37.532;2024-01-07T12:43:40;99610.22;;;-14.28;41.65
43298;BME280;28892;55.640;37.532;2024-01-07T12:46:07;99611.84;;;-14.22;41.62
43298;BME280;28892;55.640;37.532;2024-01-07T12:48:33;99614.53;;;-14.38;42.00
43298;BME280;28892;55.640;37.532;2024-01-07T12:50:59;99622.31;;;-14.50;41.95